Time;durP1;ratioP1;P1;durP2;ratioP2;P2;SDS_P1;SDS_P2;PMS_P1;PMS_P2;Temp;Humidity;BMP_temperature;BMP_pressure;BME280_temperature;BME280_humidity;BME280_pressure;Samples;Min_cycle;Max_cycle;Signal;HPM_P1;HPM_P2
2023/08/30 00:00:29;;;;;;;1.75;0.95;;;;;;;17.64;87.16;100101.19;5021058;28;20486;-67
2023/08/30 00:02:55;;;;;;;2.47;0.95;;;;;;;17.59;87.13;100096.22;5018062;28;20057;-66
2023/08/30 00:05:20;;;;;;;1.02;0.68;;;;;;;17.58;87.64;100096.63;5029796;28;20037;-66
2023/08/30 00:07:45;;;;;;;1.15;0.73;;;;;;;17.60;87.55;100096.97;5023419;28;20030;-66
2023/08/30 00:10:11;;;;;;;0.75;0.70;;;;;;;17.50;87.13;100093.25;5024537;28;20037;-66
2023/08/30 00:12:36;;;;;;;0.70;0.70;;;;;;;17.27;88.79;100089.72;5009807;28;20029;-67
2023/08/30 00:15:02;;;;;;;1.85;0.80;;;;;;;17.30;88.51;100103.28;5005767;28;20029;-66
2023/08/30 00:17:30;;;;;;;1.42;0.90;;;;;;;17.41;88.09;100095.72;5016660;28;20124;-66
2023/08/30 00:19:56;;;;;;;0.95;0.80;;;;;;;17.34;88.77;100097.78;5028201;28;20033;-66
2023/08/30 00:22:22;;;;;;;1.00;0.90;;;;;;;17.36;88.48;100098.91;5023124;28;20483;-66
2023/08/30 00:24:47;;;;;;;1.00;0.77;;;;;;;17.39;88.50;100097.31;5021977;28;20025;-66
2023/08/30 00:27:13;;;;;;;2.95;0.90;;;;;;;17.37;88.55;100103.16;5029352;28;20041;-66
2023/08/30 00:29:38;;;;;;;0.75;0.68;;;;;;;17.37;88.07;100095.00;5024947;28;20037;-66
2023/08/30 00:32:05;;;;;;;4.82;0.80;;;;;;;17.37;88.10;100100.44;5005264;28;20120;-66
2023/08/30 00:34:31;;;;;;;0.90;0.90;;;;;;;17.32;87.72;100089.25;5005165;28;20522;-66
2023/08/30 00:36:56;;;;;;;1.65;0.75;;;;;;;17.12;88.63;100100.84;5009608;28;20056;-66
2023/08/30 00:39:21;;;;;;;1.45;0.65;;;;;;;17.04;89.34;100093.97;5028672;28;20451;-66
2023/08/30 00:41:47;;;;;;;1.27;0.73;;;;;;;17.06;89.15;100096.28;5025748;28;20037;-66
2023/08/30 00:44:12;;;;;;;1.10;0.70;;;;;;;16.93;89.67;100100.75;5026423;28;20437;-66
2023/08/30 00:46:38;;;;;;;1.30;0.95;;;;;;;16.88;90.21;100098.47;5002934;28;20040;-66
2023/08/30 00:49:05;;;;;;;0.55;0.47;;;;;;;16.94;89.71;100097.63;5012968;28;20384;-66
2023/08/30 00:51:31;;;;;;;0.93;0.65;;;;;;;17.00;89.69;100104.13;5023169;28;20029;-66
2023/08/30 00:53:59;;;;;;;0.52;0.43;;;;;;;17.03;89.26;100097.09;5014006;28;20021;-66
2023/08/30 00:56:29;;;;;;;1.25;0.73;;;;;;;17.08;88.56;100094.69;5021800;28;20145;-66
2023/08/30 00:58:58;;;;;;;0.80;0.73;;;;;;;17.08;88.20;100088.47;5013756;28;20029;-66
2023/08/30 01:01:24;;;;;;;0.80;0.70;;;;;;;17.05;88.12;100089.31;5005647;28;20022;-66
2023/08/30 01:03:50;;;;;;;1.25;1.00;;;;;;;17.04;88.09;100087.75;5032006;28;20048;-66
2023/08/30 01:06:15;;;;;;;0.98;0.70;;;;;;;17.01;87.69;100085.88;5032528;28;20071;-66
2023/08/30 01:08:42;;;;;;;0.88;0.60;;;;;;;16.94;87.80;100089.44;5020106;28;20029;-67
2023/08/30 01:11:32;;;;;;;1.38;0.98;;;;;;;16.86;87.45;100087.25;5029557;28;20037;-66
2023/08/30 01:14:12;;;;;;;0.60;0.50;;;;;;;16.60;89.51;100096.94;5013817;28;20033;-67
2023/08/30 01:16:38;;;;;;;1.05;0.65;;;;;;;16.61;89.22;100081.38;5024803;28;20052;-66
2023/08/30 01:19:17;;;;;;;1.52;0.80;;;;;;;16.61;88.99;100079.44;5013865;28;20018;-66
2023/08/30 01:21:56;;;;;;;0.52;0.38;;;;;;;16.65;88.85;100066.56;5005047;28;20041;-68
2023/08/30 01:25:09;;;;;;;1.05;0.73;;;;;;;16.70;89.09;100065.34;5013500;28;20075;-66
2023/08/30 01:27:37;;;;;;;1.70;1.08;;;;;;;16.68;88.69;100059.53;4981692;28;20528;-66
2023/08/30 01:30:06;;;;;;;1.08;0.70;;;;;;;16.67;88.43;100061.47;5027002;28;20458;-67
2023/08/30 01:32:34;;;;;;;1.30;0.70;;;;;;;16.51;88.51;100053.16;5010364;28;20033;-66
2023/08/30 01:35:00;;;;;;;1.55;0.77;;;;;;;16.52;88.66;100045.78;5027075;28;20033;-66
2023/08/30 01:37:27;;;;;;;1.33;0.85;;;;;;;16.56;88.63;100050.00;4988655;28;20518;-66
2023/08/30 01:39:54;;;;;;;1.25;0.50;;;;;;;16.60;88.26;100052.66;5013828;28;20033;-66
2023/08/30 01:42:22;;;;;;;1.63;0.70;;;;;;;16.61;88.12;100043.31;5028689;28;20402;-66
2023/08/30 01:44:49;;;;;;;0.65;0.52;;;;;;;16.59;87.65;100051.13;5029089;28;20030;-66
2023/08/30 01:47:16;;;;;;;0.52;0.50;;;;;;;16.59;87.85;100053.84;5018521;28;20100;-66
2023/08/30 01:49:43;;;;;;;1.17;0.82;;;;;;;16.58;87.87;100046.84;5012124;28;20029;-66
2023/08/30 01:52:10;;;;;;;3.30;0.75;;;;;;;16.48;88.05;100050.47;5010947;28;20029;-66
2023/08/30 01:54:37;;;;;;;0.80;0.70;;;;;;;16.49;87.83;100052.78;5029260;28;20072;-66
2023/08/30 01:57:05;;;;;;;5.13;0.73;;;;;;;16.37;88.30;100053.34;5022673;28;20045;-66
2023/08/30 01:59:30;;;;;;;1.95;0.80;;;;;;;16.28;88.46;100055.75;5010757;28;20064;-66
2023/08/30 02:01:57;;;;;;;0.73;0.40;;;;;;;16.35;88.66;100052.19;5010361;28;20060;-67
2023/08/30 02:04:22;;;;;;;1.52;0.63;;;;;;;16.28;88.78;100053.81;5012905;28;20037;-66
2023/08/30 02:07:04;;;;;;;2.05;1.00;;;;;;;16.32;88.19;100048.34;5008106;28;20026;-66
2023/08/30 02:09:34;;;;;;;0.65;0.65;;;;;;;16.32;88.02;100047.59;5019544;28;20029;-66
2023/08/30 02:12:05;;;;;;;1.37;0.80;;;;;;;16.23;87.72;100043.41;5007055;28;20103;-66
2023/08/30 02:14:32;;;;;;;1.70;0.70;;;;;;;16.14;88.43;100043.13;5013577;28;20287;-66
2023/08/30 02:16:58;;;;;;;0.85;0.70;;;;;;;16.20;88.22;100046.94;5018332;28;20095;-67
2023/08/30 02:19:23;;;;;;;1.52;0.93;;;;;;;16.18;87.88;100054.72;5011630;28;20033;-66
2023/08/30 02:21:49;;;;;;;0.85;0.70;;;;;;;16.03;88.15;100053.34;5003175;28;20030;-66
2023/08/30 02:24:17;;;;;;;1.77;0.85;;;;;;;15.92;89.00;100052.72;5031527;28;20075;-66
2023/08/30 02:26:43;;;;;;;1.42;0.80;;;;;;;15.93;89.12;100046.09;5026915;28;20491;-66
2023/08/30 02:29:09;;;;;;;1.98;0.88;;;;;;;15.76;90.41;100049.00;5013452;28;20095;-66
2023/08/30 02:31:36;;;;;;;0.60;0.60;;;;;;;15.81;90.29;100048.56;5014056;28;20025;-66
2023/08/30 02:34:02;;;;;;;1.17;0.73;;;;;;;15.74;90.95;100056.78;5028793;28;20509;-66
2023/08/30 02:36:27;;;;;;;1.40;0.85;;;;;;;15.80;90.69;100052.44;5010271;28;20045;-66
2023/08/30 02:38:55;;;;;;;1.00;0.80;;;;;;;15.83;91.39;100043.50;5003322;28;20160;-66
2023/08/30 02:41:20;;;;;;;0.47;0.47;;;;;;;15.94;90.13;100039.50;5026828;28;20120;-66
2023/08/30 02:43:47;;;;;;;0.50;0.50;;;;;;;15.88;90.24;100051.97;5008539;28;20032;-66
2023/08/30 02:46:12;;;;;;;2.22;0.98;;;;;;;15.95;90.12;100045.72;5005682;28;20398;-66
2023/08/30 02:48:38;;;;;;;1.67;0.80;;;;;;;16.01;89.83;100035.91;5007335;28;20030;-66
2023/08/30 02:51:03;;;;;;;0.68;0.57;;;;;;;16.03;89.57;100031.63;5016284;28;20041;-66
2023/08/30 02:53:29;;;;;;;1.17;0.77;;;;;;;15.99;90.04;100032.81;5012248;28;20025;-66
2023/08/30 02:55:55;;;;;;;1.05;0.82;;;;;;;15.85;90.30;100047.34;5013689;28;20044;-66
2023/08/30 02:58:22;;;;;;;0.60;0.55;;;;;;;15.77;91.55;100042.41;4994357;28;20029;-66
2023/08/30 03:00:47;;;;;;;0.95;0.70;;;;;;;15.86;91.10;100043.47;5007396;28;20030;-66
2023/08/30 03:03:13;;;;;;;2.47;1.00;;;;;;;15.93;91.08;100037.94;5008369;28;20431;-66
2023/08/30 03:05:40;;;;;;;0.90;0.80;;;;;;;15.96;91.01;100031.72;5012279;28;20028;-66
2023/08/30 03:08:05;;;;;;;2.13;0.98;;;;;;;15.97;91.10;100032.47;5009754;28;20111;-66
2023/08/30 03:10:32;;;;;;;1.88;0.90;;;;;;;16.02;91.21;100035.53;5008799;28;20815;-67
2023/08/30 03:12:57;;;;;;;1.20;0.88;;;;;;;16.04;91.13;100035.88;5029222;28;20512;-67
2023/08/30 03:15:23;;;;;;;1.48;0.70;;;;;;;16.00;90.52;100029.72;5011517;28;20048;-66
2023/08/30 03:17:48;;;;;;;1.55;1.08;;;;;;;15.90;91.58;100030.63;5011979;28;20044;-66
2023/08/30 03:20:14;;;;;;;2.25;1.17;;;;;;;15.92;91.21;100030.97;5012061;28;20037;-66
2023/08/30 03:22:40;;;;;;;1.17;0.82;;;;;;;15.93;92.06;100032.50;5012038;28;20029;-67
2023/08/30 03:25:06;;;;;;;1.55;1.40;;;;;;;15.95;92.04;100032.13;5012090;28;20033;-66
2023/08/30 03:27:32;;;;;;;1.48;0.98;;;;;;;16.05;91.63;100034.69;5029679;28;20037;-66
2023/08/30 03:29:58;;;;;;;2.08;1.10;;;;;;;16.08;91.88;100031.19;5013646;28;20025;-66
2023/08/30 03:32:23;;;;;;;2.08;1.27;;;;;;;16.09;91.36;100040.09;4991420;28;20056;-66
2023/08/30 03:34:49;;;;;;;2.03;1.17;;;;;;;15.96;91.14;100026.28;5028935;28;20033;-66
2023/08/30 03:37:15;;;;;;;1.67;1.27;;;;;;;15.96;92.08;100022.78;5008750;28;20033;-67
2023/08/30 03:39:41;;;;;;;1.45;0.95;;;;;;;16.01;91.77;100025.81;4996647;28;20043;-66
2023/08/30 03:42:06;;;;;;;2.60;1.58;;;;;;;16.06;91.81;100030.03;5011404;28;20037;-66
2023/08/30 03:44:32;;;;;;;2.13;1.27;;;;;;;16.10;91.53;100038.94;5011895;28;20041;-66
2023/08/30 03:46:57;;;;;;;1.95;1.10;;;;;;;16.13;91.48;100027.22;5012910;28;20056;-66
2023/08/30 03:49:23;;;;;;;2.85;1.52;;;;;;;16.12;91.56;100023.00;5030358;28;20038;-66
2023/08/30 03:51:51;;;;;;;2.60;1.30;;;;;;;16.11;91.31;100024.94;5026569;28;20036;-66
2023/08/30 03:54:17;;;;;;;2.20;1.23;;;;;;;16.00;91.97;100015.38;5025828;28;20460;-66
2023/08/30 03:56:43;;;;;;;1.73;1.23;;;;;;;15.98;92.21;100017.72;5009927;28;20128;-66
2023/08/30 03:59:09;;;;;;;1.45;0.93;;;;;;;15.98;92.00;100023.94;5011013;28;20021;-66
2023/08/30 04:01:35;;;;;;;4.65;1.52;;;;;;;15.99;91.89;100013.81;5026797;28;20543;-66
2023/08/30 04:04:00;;;;;;;2.05;1.00;;;;;;;15.99;92.58;100008.38;5004216;28;20098;-67
2023/08/30 04:06:25;;;;;;;3.45;1.48;;;;;;;16.02;92.47;100000.22;5029833;28;20520;-66
2023/08/30 04:08:51;;;;;;;2.45;1.40;;;;;;;16.03;92.81;100003.69;5008143;28;20029;-66
2023/08/30 04:11:16;;;;;;;3.33;1.77;;;;;;;16.01;92.91;100000.59;5008001;28;20470;-66
2023/08/30 04:13:42;;;;;;;2.08;1.42;;;;;;;16.02;92.71;99989.34;5009734;28;20017;-66
2023/08/30 04:16:07;;;;;;;2.65;1.40;;;;;;;16.05;92.88;99991.22;5011748;28;20049;-66
2023/08/30 04:18:33;;;;;;;2.22;1.45;;;;;;;15.98;92.87;99994.06;5028584;28;20701;-66
2023/08/30 04:20:59;;;;;;;1.95;1.45;;;;;;;15.96;93.37;99988.25;5026613;28;20021;-66
2023/08/30 04:23:24;;;;;;;2.25;1.38;;;;;;;16.02;93.67;99988.56;5006542;28;20040;-66
2023/08/30 04:25:50;;;;;;;2.58;1.70;;;;;;;15.98;93.19;99985.13;5028805;28;20055;-67
2023/08/30 04:28:15;;;;;;;2.78;1.63;;;;;;;15.98;93.63;99985.91;5008461;28;20048;-66
2023/08/30 04:30:41;;;;;;;2.88;1.50;;;;;;;15.95;93.80;99978.56;5024884;28;20033;-65
2023/08/30 04:33:07;;;;;;;2.50;1.73;;;;;;;16.02;94.13;99991.28;5010553;28;20033;-66
2023/08/30 04:35:33;;;;;;;1.73;1.30;;;;;;;16.05;93.84;99982.31;5012220;28;20116;-66
2023/08/30 04:37:59;;;;;;;5.85;2.33;;;;;;;16.07;93.11;99979.94;5006465;28;20037;-65
2023/08/30 04:40:25;;;;;;;3.13;1.55;;;;;;;15.93;93.97;99977.44;5013856;28;20532;-66
2023/08/30 04:42:50;;;;;;;2.00;1.42;;;;;;;15.92;94.00;99984.81;5023339;28;20029;-66
2023/08/30 04:45:16;;;;;;;3.08;1.60;;;;;;;15.98;94.99;99979.69;5028845;28;20080;-68
2023/08/30 04:47:43;;;;;;;4.22;1.70;;;;;;;16.02;94.59;99978.47;5008156;28;20452;-70
2023/08/30 04:50:09;;;;;;;2.05;1.30;;;;;;;16.04;94.80;99975.34;5025948;28;20045;-64
2023/08/30 04:52:35;;;;;;;4.45;1.80;;;;;;;16.01;94.50;99987.78;5013101;28;20148;-65
2023/08/30 04:55:00;;;;;;;3.33;1.67;;;;;;;16.02;95.26;99985.84;5020459;28;20552;-65
2023/08/30 04:57:27;;;;;;;2.58;1.75;;;;;;;16.15;94.37;99982.19;5007993;28;20506;-64
2023/08/30 04:59:52;;;;;;;1.98;1.50;;;;;;;16.25;94.79;99984.00;5013462;28;20034;-65
2023/08/30 05:02:18;;;;;;;1.98;1.45;;;;;;;16.31;94.56;99981.59;5024861;28;20069;-65
2023/08/30 05:05:09;;;;;;;3.38;1.75;;;;;;;16.33;94.31;99973.78;5028320;28;20045;-68
2023/08/30 05:07:35;;;;;;;3.05;1.60;;;;;;;16.38;94.25;99986.13;5010218;28;20401;-66
2023/08/30 05:10:02;;;;;;;2.00;1.55;;;;;;;16.43;94.37;99972.88;5015067;28;20037;-65
2023/08/30 05:12:28;;;;;;;3.97;1.52;;;;;;;16.50;94.06;99972.00;5009854;28;20520;-64
2023/08/30 05:14:54;;;;;;;2.20;1.42;;;;;;;16.54;94.16;99980.88;5017552;28;20025;-69
2023/08/30 05:17:19;;;;;;;1.50;1.27;;;;;;;16.58;94.59;99973.44;5008457;28;20036;-64
2023/08/30 05:19:45;;;;;;;2.08;1.45;;;;;;;16.62;94.29;99980.38;5011949;28;20071;-70
2023/08/30 05:22:11;;;;;;;2.80;1.73;;;;;;;16.69;94.17;99979.47;5007077;28;20034;-65
2023/08/30 05:24:36;;;;;;;2.65;1.30;;;;;;;16.69;93.79;99982.97;5015370;28;20029;-64
2023/08/30 05:27:02;;;;;;;5.05;1.75;;;;;;;16.66;94.28;99977.59;5013342;28;20033;-67
2023/08/30 05:29:58;;;;;;;4.18;1.38;;;;;;;16.73;94.33;99975.53;5015652;28;20035;-65
2023/08/30 05:32:23;;;;;;;4.28;1.70;;;;;;;16.85;94.10;99979.63;4938148;28;20050;-64
2023/08/30 05:35:18;;;;;;;1.92;1.48;;;;;;;16.93;93.77;99981.06;4944419;28;20455;-72
2023/08/30 05:37:53;;;;;;;1.67;1.33;;;;;;;16.96;94.24;99972.06;4936031;28;20093;-64
2023/08/30 05:40:34;;;;;;;2.95;1.38;;;;;;;17.04;94.44;99982.41;4926289;28;20153;-66
2023/08/30 05:43:01;;;;;;;2.88;1.70;;;;;;;17.03;94.36;99980.84;4926418;29;20553;-65
2023/08/30 05:45:27;;;;;;;2.58;1.67;;;;;;;17.13;93.61;99984.56;4943786;28;20039;-65
2023/08/30 05:47:52;;;;;;;2.35;1.50;;;;;;;17.12;93.77;99983.06;4953823;28;20038;-66
2023/08/30 05:50:18;;;;;;;2.35;1.50;;;;;;;17.17;94.11;99979.09;4930372;28;20049;-68
2023/08/30 05:52:44;;;;;;;2.33;1.30;;;;;;;17.26;94.32;99968.44;4917671;29;20504;-66
2023/08/30 05:55:10;;;;;;;3.75;1.58;;;;;;;17.34;93.91;99975.28;4937190;28;20027;-67
2023/08/30 05:57:36;;;;;;;1.90;1.35;;;;;;;17.43;93.92;99975.50;4935784;29;20059;-67
2023/08/30 06:00:04;;;;;;;2.20;1.42;;;;;;;17.50;93.67;99973.44;4949138;29;20090;-68
2023/08/30 06:02:40;;;;;;;2.33;1.52;;;;;;;17.58;93.57;99969.41;4948626;29;20067;-67
2023/08/30 06:05:06;;;;;;;2.38;1.33;;;;;;;17.68;93.43;99967.66;4950407;29;20051;-67
2023/08/30 06:07:32;;;;;;;1.65;1.02;;;;;;;17.74;93.02;99966.75;4920763;29;20027;-65
2023/08/30 06:09:57;;;;;;;2.40;1.55;;;;;;;17.79;92.73;99958.06;5008949;28;20133;-67
2023/08/30 06:12:22;;;;;;;3.22;1.65;;;;;;;17.80;92.92;99958.84;5030472;28;20033;-67
2023/08/30 06:14:52;;;;;;;2.20;1.48;;;;;;;17.86;91.94;99963.41;5028887;28;20507;-67
2023/08/30 06:17:18;;;;;;;2.97;1.70;;;;;;;17.91;91.78;99971.06;5029964;28;20029;-67
2023/08/30 06:19:45;;;;;;;2.05;1.30;;;;;;;17.98;91.88;99965.47;5031570;28;20041;-67
2023/08/30 06:22:10;;;;;;;4.20;1.92;;;;;;;18.09;91.03;99959.78;5030042;28;20069;-69
2023/08/30 06:24:36;;;;;;;4.30;1.58;;;;;;;18.13;90.06;99952.31;5012031;28;20415;-68
2023/08/30 06:27:01;;;;;;;1.83;1.27;;;;;;;18.16;90.35;99958.84;5023150;28;20061;-66
2023/08/30 06:29:27;;;;;;;2.58;1.60;;;;;;;18.24;89.66;99958.28;5010163;28;20040;-67
2023/08/30 06:31:55;;;;;;;2.00;1.42;;;;;;;18.35;89.30;99956.09;5030224;28;20036;-68
2023/08/30 06:34:21;;;;;;;2.25;1.48;;;;;;;18.50;89.05;99959.31;5029641;28;20124;-65
2023/08/30 06:36:46;;;;;;;4.72;2.05;;;;;;;18.45;86.85;99957.06;5003394;28;20132;-67
2023/08/30 06:39:12;;;;;;;4.03;2.08;;;;;;;18.08;88.16;99941.91;5025422;28;20026;-67
2023/08/30 06:41:37;;;;;;;3.47;1.90;;;;;;;17.93;88.17;99949.63;5027389;28;20464;-66
2023/08/30 06:44:03;;;;;;;2.10;1.50;;;;;;;18.19;87.60;99958.81;5005764;28;20060;-64
2023/08/30 06:46:29;;;;;;;2.20;1.58;;;;;;;18.29;87.40;99957.03;5030864;28;20041;-67
2023/08/30 06:48:54;;;;;;;2.67;1.48;;;;;;;18.37;87.07;99953.69;5029835;28;20129;-68
2023/08/30 06:51:20;;;;;;;3.60;1.77;;;;;;;18.64;86.48;99961.69;5011613;28;20112;-64
2023/08/30 06:53:46;;;;;;;3.33;2.50;;;;;;;18.96;86.21;99953.50;5029971;28;20600;-66
2023/08/30 06:56:12;;;;;;;6.25;1.92;;;;;;;18.98;84.21;99947.59;5030542;28;20401;-64
2023/08/30 06:58:38;;;;;;;3.97;1.80;;;;;;;19.09;84.26;99948.84;5029475;28;20021;-65
2023/08/30 07:01:03;;;;;;;3.95;1.60;;;;;;;19.25;83.14;99945.31;5028558;28;20567;-67
2023/08/30 07:03:29;;;;;;;1.75;1.25;;;;;;;19.46;82.01;99945.56;5020815;28;20084;-70
2023/08/30 07:05:54;;;;;;;2.63;1.67;;;;;;;19.12;81.60;99945.28;5027292;28;20061;-66
2023/08/30 07:08:20;;;;;;;3.15;1.63;;;;;;;19.38;82.39;99949.66;5027642;28;20029;-67
2023/08/30 07:10:45;;;;;;;1.77;1.27;;;;;;;19.59;81.76;99948.31;5014045;28;20033;-68
2023/08/30 07:13:12;;;;;;;1.45;1.25;;;;;;;19.74;80.76;99944.00;5030005;28;20088;-67
2023/08/30 07:15:42;;;;;;;2.10;1.60;;;;;;;19.80;79.96;99934.06;5027437;28;20044;-64
2023/08/30 07:18:08;;;;;;;3.83;1.60;;;;;;;19.86;79.91;99934.28;5023098;28;20395;-67
2023/08/30 07:20:34;;;;;;;1.65;1.20;;;;;;;20.08;79.99;99933.22;5016305;28;20025;-64
2023/08/30 07:23:00;;;;;;;3.60;1.48;;;;;;;20.30;79.14;99944.31;5029134;28;20029;-72
2023/08/30 07:25:26;;;;;;;2.85;1.60;;;;;;;20.26;78.32;99938.19;5025177;28;20121;-64
2023/08/30 07:27:51;;;;;;;2.50;1.80;;;;;;;20.24;77.76;99937.84;5024061;28;20140;-68
2023/08/30 07:30:17;;;;;;;2.90;1.95;;;;;;;20.18;78.41;99943.09;5031340;28;20298;-64
2023/08/30 07:32:43;;;;;;;3.17;1.85;;;;;;;20.24;78.02;99935.88;5019282;28;20045;-68
2023/08/30 07:35:08;;;;;;;2.17;1.58;;;;;;;20.44;77.71;99936.41;5033501;28;20034;-71
2023/08/30 07:37:35;;;;;;;2.72;1.80;;;;;;;20.20;79.09;99937.19;5029328;28;20127;-65
2023/08/30 07:40:00;;;;;;;1.15;0.90;;;;;;;20.45;78.80;99939.91;5029971;28;20513;-64
2023/08/30 07:42:26;;;;;;;2.25;1.42;;;;;;;20.53;78.71;99933.78;5005822;28;20030;-65
2023/08/30 07:44:52;;;;;;;3.35;1.58;;;;;;;20.87;78.67;99944.00;5029082;28;20037;-66
2023/08/30 07:47:17;;;;;;;2.28;1.27;;;;;;;21.24;77.25;99948.63;5026359;28;20032;-66
2023/08/30 07:49:43;;;;;;;2.40;1.30;;;;;;;21.42;76.76;99943.31;5008702;28;20033;-64
2023/08/30 07:52:10;;;;;;;2.03;1.33;;;;;;;21.73;75.54;99950.81;5009911;28;20029;-64
2023/08/30 07:54:38;;;;;;;1.85;1.35;;;;;;;21.99;74.12;99944.00;5007439;28;20030;-65
2023/08/30 07:57:04;;;;;;;1.67;1.25;;;;;;;22.14;73.78;99947.72;5030218;28;20057;-65
2023/08/30 07:59:34;;;;;;;2.88;1.80;;;;;;;22.30;73.60;99939.25;5029628;28;20406;-65
2023/08/30 08:02:00;;;;;;;2.10;1.67;;;;;;;22.49;72.72;99948.31;5027572;28;20485;-65
2023/08/30 08:04:26;;;;;;;2.50;1.40;;;;;;;22.63;71.93;99945.78;5033546;28;20057;-66
2023/08/30 08:06:52;;;;;;;2.15;1.73;;;;;;;22.72;71.14;99950.56;5011652;28;20403;-68
2023/08/30 08:09:17;;;;;;;3.78;1.95;;;;;;;22.79;68.24;99947.50;5011061;28;20114;-64
2023/08/30 08:11:43;;;;;;;2.80;1.90;;;;;;;22.50;69.14;99949.84;5023839;28;20084;-73
2023/08/30 08:14:12;;;;;;;5.82;1.50;;;;;;;22.56;69.98;99957.03;5028161;28;20037;-64
2023/08/30 08:16:37;;;;;;;2.63;1.45;;;;;;;22.86;69.29;99956.22;5026169;28;20079;-67
2023/08/30 08:19:03;;;;;;;2.47;1.55;;;;;;;23.08;67.95;99956.88;5025516;28;20033;-64
2023/08/30 08:21:29;;;;;;;2.25;1.77;;;;;;;23.25;67.24;99962.81;5013495;28;20516;-65
2023/08/30 08:23:54;;;;;;;3.10;1.88;;;;;;;23.10;65.65;99961.91;5031099;28;20501;-67
2023/08/30 08:26:19;;;;;;;3.67;2.30;;;;;;;23.07;64.58;99957.31;5032917;28;20037;-65
2023/08/30 08:28:45;;;;;;;3.33;1.85;;;;;;;23.14;65.23;99965.25;5023322;28;20044;-66
2023/08/30 08:31:10;;;;;;;2.60;1.73;;;;;;;23.18;66.25;99968.63;5029906;28;20057;-69
2023/08/30 08:33:36;;;;;;;4.97;1.67;;;;;;;23.27;65.82;99961.16;5031542;28;20079;-65
2023/08/30 08:36:01;;;;;;;3.17;1.55;;;;;;;23.36;66.03;99965.91;5030655;28;20037;-65
2023/08/30 08:38:27;;;;;;;3.60;1.83;;;;;;;23.40;66.49;99969.28;5027835;28;20482;-67
2023/08/30 08:41:03;;;;;;;4.35;2.45;;;;;;;23.34;63.60;99962.09;5029640;28;20037;-65
2023/08/30 08:43:29;;;;;;;2.50;1.52;;;;;;;23.43;64.57;99964.84;5031039;28;20039;-64
2023/08/30 08:45:59;;;;;;;2.97;1.75;;;;;;;23.43;64.75;99960.09;5033157;28;20478;-65
2023/08/30 08:48:28;;;;;;;4.43;2.30;;;;;;;23.52;63.76;99960.09;5000603;28;20030;-66
2023/08/30 08:50:54;;;;;;;2.55;1.50;;;;;;;23.66;63.92;99964.19;5013663;28;20128;-67
2023/08/30 08:53:20;;;;;;;2.92;1.50;;;;;;;23.62;63.81;99969.84;5032407;28;20033;-67
2023/08/30 08:55:48;;;;;;;2.42;1.60;;;;;;;23.39;62.64;99967.75;5033090;28;20028;-66
2023/08/30 08:58:15;;;;;;;2.92;1.77;;;;;;;23.40;64.11;99969.28;5032436;28;20041;-68
2023/08/30 09:00:44;;;;;;;2.75;1.92;;;;;;;23.32;64.78;99967.28;5033378;28;20041;-64
2023/08/30 09:03:10;;;;;;;3.72;1.83;;;;;;;23.40;64.62;99968.50;5032613;28;20439;-68
2023/08/30 09:05:38;;;;;;;3.55;1.90;;;;;;;23.44;64.28;99963.63;5027035;28;20048;-66
2023/08/30 09:08:05;;;;;;;5.85;2.40;;;;;;;23.34;63.12;99971.13;5023800;28;20436;-73
2023/08/30 09:10:34;;;;;;;4.80;1.95;;;;;;;23.11;64.71;99975.16;5011213;28;20474;-65
2023/08/30 09:13:00;;;;;;;3.08;2.30;;;;;;;22.84;65.75;99968.88;5025684;28;20029;-69
2023/08/30 09:15:38;;;;;;;5.72;2.30;;;;;;;22.87;66.58;99973.47;5032247;28;20025;-66
2023/08/30 09:18:04;;;;;;;3.17;2.10;;;;;;;22.78;66.60;99968.72;5032965;28;20041;-65
2023/08/30 09:20:29;;;;;;;3.28;1.65;;;;;;;22.73;67.07;99971.28;5015786;28;20034;-64
2023/08/30 09:22:55;;;;;;;3.97;2.00;;;;;;;22.86;67.58;99969.94;5014987;28;20099;-65
2023/08/30 09:25:25;;;;;;;3.33;2.15;;;;;;;22.92;67.05;99965.38;5031686;28;20053;-68
2023/08/30 09:27:51;;;;;;;3.00;1.90;;;;;;;22.91;66.34;99966.63;5027335;28;20555;-65
2023/08/30 09:30:23;;;;;;;3.38;1.92;;;;;;;23.03;67.11;99970.44;5025883;28;20116;-67
2023/08/30 09:33:09;;;;;;;1.90;1.35;;;;;;;23.13;66.42;99969.25;5029341;28;20033;-68
2023/08/30 09:35:43;;;;;;;4.72;2.00;;;;;;;23.20;65.80;99955.19;4929040;29;20118;-71
2023/08/30 09:38:35;;;;;;;2.22;1.23;;;;;;;23.34;65.78;99964.84;4930968;29;20056;-68
2023/08/30 09:41:04;;;;;;;3.58;2.08;;;;;;;23.39;63.43;99958.72;4896860;29;20048;-68
2023/08/30 09:43:31;;;;;;;3.85;2.38;;;;;;;23.32;61.42;99956.28;4893196;29;20529;-66
2023/08/30 09:45:57;;;;;;;4.90;2.13;;;;;;;22.74;63.11;99951.63;4894760;29;20063;-67
2023/08/30 09:48:28;;;;;;;3.53;1.80;;;;;;;22.50;64.35;99947.09;4893916;29;20032;-70
2023/08/30 09:50:54;;;;;;;2.08;1.45;;;;;;;22.63;65.07;99951.28;4894440;29;20687;-65
2023/08/30 09:53:42;;;;;;;4.20;1.70;;;;;;;22.80;63.43;99952.53;4897402;29;20049;-64
2023/08/30 09:56:29;;;;;;;2.28;1.27;;;;;;;22.75;62.47;99952.38;4875744;29;20139;-67
2023/08/30 09:58:55;;;;;;;2.17;1.40;;;;;;;22.87;60.25;99952.25;4855738;29;20045;-65
2023/08/30 10:01:20;;;;;;;2.67;1.40;;;;;;;23.07;60.00;99947.06;4836474;29;20052;-67
2023/08/30 10:03:47;;;;;;;1.70;1.20;;;;;;;23.18;60.18;99946.63;4834897;29;20068;-67
2023/08/30 10:06:12;;;;;;;3.30;1.95;;;;;;;23.28;59.51;99950.91;4848128;29;20483;-66
2023/08/30 10:08:39;;;;;;;2.65;1.45;;;;;;;23.41;59.79;99942.53;4851678;29;20112;-67
2023/08/30 10:11:05;;;;;;;3.13;1.40;;;;;;;23.59;59.85;99943.28;4845361;29;20059;-67
2023/08/30 10:13:38;;;;;;;2.60;1.55;;;;;;;23.66;59.51;99948.47;4884888;29;20155;-64
2023/08/30 10:16:04;;;;;;;3.05;1.85;;;;;;;23.67;58.45;99949.25;4892217;29;20052;-69
2023/08/30 10:18:32;;;;;;;3.05;1.55;;;;;;;23.66;59.29;99945.72;4915500;29;20057;-64
2023/08/30 10:20:59;;;;;;;3.42;1.40;;;;;;;23.66;59.85;99950.44;4951698;29;20434;-66
2023/08/30 10:23:25;;;;;;;3.03;1.73;;;;;;;23.79;60.17;99948.31;4950664;29;20039;-68
2023/08/30 10:25:53;;;;;;;2.35;1.58;;;;;;;23.88;58.28;99945.53;4949547;28;20050;-65
2023/08/30 10:28:21;;;;;;;3.20;1.55;;;;;;;23.92;57.60;99948.88;4935186;29;20054;-68
2023/08/30 10:30:47;;;;;;;3.58;1.80;;;;;;;23.95;57.05;99947.94;4950644;29;20039;-65
2023/08/30 10:33:13;;;;;;;2.38;1.45;;;;;;;23.75;55.26;99942.19;4951308;28;20070;-65
2023/08/30 10:35:51;;;;;;;2.30;1.35;;;;;;;23.82;55.63;99941.88;4999268;28;20050;-66
2023/08/30 10:38:28;;;;;;;1.50;1.00;;;;;;;23.86;55.51;99950.72;5019317;28;20037;-69
2023/08/30 10:41:06;;;;;;;1.58;1.02;;;;;;;23.84;55.25;99950.41;5026620;28;20041;-65
2023/08/30 10:46:12;;;;;;;1.13;0.68;;;;;;;23.67;54.14;99949.25;4974793;28;20054;-70
2023/08/30 10:48:39;;;;;;;2.38;1.20;;;;;;;23.61;54.60;99951.84;4982327;28;20545;-70
2023/08/30 10:51:07;;;;;;;1.58;0.70;;;;;;;23.51;54.97;99941.31;4984682;28;20042;-70
2023/08/30 10:53:33;;;;;;;1.88;1.15;;;;;;;23.52;55.28;99940.84;4978029;28;20494;-70
2023/08/30 10:56:10;;;;;;;2.88;1.10;;;;;;;23.41;55.81;99948.03;4966278;28;20038;-71
2023/08/30 10:58:45;;;;;;;1.75;1.00;;;;;;;23.28;57.20;99939.94;4959450;28;20039;-70
2023/08/30 11:01:13;;;;;;;1.40;1.00;;;;;;;23.28;57.92;99942.69;4982522;28;20488;-69
2023/08/30 11:04:02;;;;;;;4.70;1.38;;;;;;;23.32;57.09;99940.56;4970147;28;20065;-70
2023/08/30 11:06:28;;;;;;;1.75;0.95;;;;;;;23.35;57.79;99942.38;4927527;29;20050;-70
2023/08/30 11:08:54;;;;;;;0.63;0.60;;;;;;;23.44;56.41;99938.88;4915332;29;20055;-70
2023/08/30 11:11:40;;;;;;;1.42;0.80;;;;;;;23.52;55.25;99929.09;4931256;29;20031;-69
2023/08/30 11:14:09;;;;;;;1.95;1.23;;;;;;;23.60;54.85;99935.78;4861739;29;20049;-70
2023/08/30 11:16:38;;;;;;;2.00;0.82;;;;;;;23.69;54.33;99933.03;4888050;29;20063;-70
2023/08/30 11:19:05;;;;;;;1.73;1.25;;;;;;;23.80;54.09;99925.84;4888805;29;20589;-70
2023/08/30 11:21:32;;;;;;;1.33;0.80;;;;;;;23.96;53.06;99939.22;4887054;29;20075;-69
2023/08/30 11:24:00;;;;;;;1.38;0.95;;;;;;;23.84;52.28;99925.66;4888822;29;20131;-68
2023/08/30 11:26:29;;;;;;;1.67;1.02;;;;;;;23.79;51.67;99931.81;4892805;29;20048;-68
2023/08/30 11:28:55;;;;;;;1.83;1.08;;;;;;;23.74;53.04;99926.91;4884086;29;20119;-68
2023/08/30 11:31:28;;;;;;;1.08;0.70;;;;;;;23.62;53.15;99927.84;4901927;29;20146;-68
2023/08/30 11:33:56;;;;;;;2.15;1.25;;;;;;;23.53;53.58;99916.88;4890607;29;20051;-68